Porter Square, Massachusetts
Current Conditions -  °F | °C
As of 8:54 AM on Thursday 30 Oct 2014 (Local Time) from KBOS Reporting Station
Few Clouds Few Clouds  
Wind Chill: 50°   Ceiling: Unl
Heat Index: 50°   Visibility: 10mi
Dew Point: 40°   Wind: 13mph
Humidity: 68%   Direction: 280°W
Pressure: 29.94"   Gusts: NA
Location:  42.3933°N, 71.1333°W
Report Text: KBOS 301254Z 28011KT 10SM FEW200 10/04 A2994 RMK AO2 SLP137 T01000044
Loading
Personal Weather Stations






























Interactive Weather Map
Tropical Storm Tracking
New forecast layout! Learn more

10-Day Weather Forecast

Advertisements
Track Severe Weather on mobile